createdAt,value
2022-11-23T00:04:47.240Z,20.45
2022-11-23T00:09:53.563Z,19.35
2022-11-23T00:14:59.624Z,20.77
2022-11-23T00:20:09.901Z,19.08
2022-11-23T00:25:16.476Z,18.45
2022-11-23T00:30:23.024Z,19.10
2022-11-23T00:35:31.105Z,18.27
2022-11-23T00:40:40.396Z,16.55
2022-11-23T00:45:46.877Z,18.52
2022-11-23T00:50:54.570Z,17.95
2022-11-23T00:56:01.090Z,16.77
2022-11-23T01:01:10.886Z,17.10
2022-11-23T01:06:21.990Z,19.40
2022-11-23T01:11:31.336Z,17.95
2022-11-23T01:16:40.787Z,17.85
2022-11-23T01:21:51.492Z,18.80
2022-11-23T01:26:57.935Z,18.33
2022-11-23T01:32:06.118Z,16.87
2022-11-23T01:37:13.793Z,18.65
2022-11-23T01:42:20.233Z,19.48
2022-11-23T01:47:27.572Z,19.05
2022-11-23T01:52:35.578Z,18.70
2022-11-23T01:57:45.981Z,18.00
2022-11-23T02:02:58.191Z,19.10
2022-11-23T02:08:07.515Z,19.40
2022-11-23T02:13:15.798Z,16.55
2022-11-23T02:18:25.379Z,18.60
2022-11-23T02:23:43.508Z,17.80
2022-11-23T02:28:59.888Z,18.65
2022-11-23T02:34:08.624Z,17.58
2022-11-23T02:39:20.363Z,17.40
2022-11-23T02:55:30.856Z,17.88
2022-11-23T03:00:42.349Z,18.38
2022-11-23T03:05:49.152Z,19.58
2022-11-23T03:10:55.308Z,17.45
2022-11-23T03:16:04.471Z,18.40
2022-11-23T03:21:11.406Z,16.92
2022-11-23T03:26:18.297Z,18.48
2022-11-23T03:31:35.577Z,17.00
2022-11-23T03:36:42.088Z,17.08
2022-11-23T03:41:48.587Z,17.35
2022-11-23T03:46:57.147Z,16.60
2022-11-23T03:52:04.041Z,17.75
2022-11-23T03:57:10.483Z,16.45
2022-11-23T04:02:18.561Z,17.35
2022-11-23T04:07:34.122Z,16.05
2022-11-23T04:12:43.674Z,16.63
2022-11-23T04:17:51.259Z,17.52
2022-11-23T04:22:58.022Z,16.13
2022-11-23T04:28:06.457Z,16.07
2022-11-23T04:33:14.492Z,15.40
2022-11-23T04:38:20.901Z,15.30
2022-11-23T04:43:27.969Z,16.75
2022-11-23T04:48:35.992Z,15.52
2022-11-23T04:53:43.632Z,15.25
2022-11-23T04:58:50.907Z,15.35
2022-11-23T05:03:59.498Z,15.65
2022-11-23T05:09:07.048Z,15.18
2022-11-23T05:14:32.209Z,16.02
2022-11-23T05:19:39.868Z,14.10
2022-11-23T05:24:46.953Z,14.48
2022-11-23T05:29:57.566Z,13.93
2022-11-23T05:35:05.443Z,15.25
2022-11-23T05:40:14.317Z,14.65
2022-11-23T05:45:21.880Z,14.93
2022-11-23T05:50:33.497Z,14.38
2022-11-23T05:56:05.924Z,14.38
2022-11-23T06:01:17.674Z,13.98
2022-11-23T06:06:25.964Z,13.10
2022-11-23T06:11:33.433Z,13.07
2022-11-23T06:16:45.844Z,12.85
2022-11-23T06:22:15.806Z,13.63
2022-11-23T06:27:38.408Z,13.55
2022-11-23T06:32:53.725Z,12.25
2022-11-23T06:38:04.053Z,13.00
2022-11-23T06:43:10.731Z,11.10
2022-11-23T06:48:21.519Z,11.88
2022-11-23T06:53:30.436Z,12.02
2022-11-23T06:58:41.861Z,13.27
2022-11-23T07:03:52.517Z,12.18
2022-11-23T07:09:06.563Z,11.48
2022-11-23T07:14:38.780Z,12.15
2022-11-23T07:19:45.192Z,11.77
2022-11-23T07:24:53.027Z,11.25
2022-11-23T07:29:59.099Z,12.25
2022-11-23T07:35:05.841Z,11.18
2022-11-23T07:40:17.977Z,11.90
2022-11-23T07:45:24.574Z,12.93
2022-11-23T07:50:34.667Z,14.23
2022-11-23T07:55:42.467Z,11.23
2022-11-23T08:00:48.689Z,12.20
2022-11-23T08:05:54.828Z,13.13
2022-11-23T08:11:02.433Z,13.43
2022-11-23T08:16:09.457Z,11.85
2022-11-23T08:21:15.585Z,12.63
2022-11-23T08:26:23.214Z,14.23
2022-11-23T08:31:29.473Z,12.57
2022-11-23T08:36:35.627Z,13.80
2022-11-23T08:41:43.870Z,12.65
2022-11-23T08:46:51.203Z,13.70
2022-11-23T08:51:57.406Z,11.32
2022-11-23T08:57:05.108Z,16.73
2022-11-23T09:02:14.201Z,12.13
2022-11-23T09:07:20.585Z,11.20
2022-11-23T09:12:28.483Z,11.48
2022-11-23T09:17:34.782Z,14.38
2022-11-23T09:22:41.177Z,13.00
2022-11-23T09:27:49.583Z,12.10
2022-11-23T09:32:58.328Z,11.57
2022-11-23T09:38:04.657Z,12.93
2022-11-23T09:43:42.049Z,12.20
2022-11-23T09:49:17.806Z,11.55
2022-11-23T09:54:34.117Z,11.95
2022-11-23T09:59:47.497Z,13.02
2022-11-23T10:04:55.229Z,12.20
2022-11-23T10:10:10.692Z,10.90
2022-11-23T10:15:27.194Z,12.02
2022-11-23T10:21:00.387Z,12.70
2022-11-23T10:26:10.775Z,13.07
2022-11-23T10:31:21.738Z,12.27
2022-11-23T10:36:28.152Z,12.35
2022-11-23T10:41:34.610Z,11.23
2022-11-23T10:46:43.468Z,12.20
2022-11-23T10:51:58.993Z,12.85
2022-11-23T10:57:30.177Z,14.65
2022-11-23T11:02:44.693Z,12.60
2022-11-23T11:07:51.418Z,11.35
2022-11-23T11:12:57.653Z,13.02
2022-11-23T11:18:05.435Z,15.25
2022-11-23T11:23:21.731Z,12.73
2022-11-23T11:28:35.964Z,12.90
2022-11-23T11:33:48.431Z,12.68
2022-11-23T11:39:18.697Z,13.00
2022-11-23T11:44:28.469Z,13.60
2022-11-23T11:49:43.473Z,12.90
2022-11-23T11:54:55.093Z,13.23
2022-11-23T12:00:09.617Z,12.00
2022-11-23T12:05:25.658Z,13.43
2022-11-23T12:10:40.203Z,14.65
2022-11-23T12:15:50.896Z,13.43
2022-11-23T12:21:07.048Z,12.88
2022-11-23T12:26:27.863Z,12.45
2022-11-23T12:31:44.276Z,13.30
2022-11-23T12:37:14.701Z,16.70
2022-11-23T12:42:28.062Z,13.63
2022-11-23T12:47:47.097Z,18.27
2022-11-23T12:53:07.075Z,13.60
2022-11-23T12:58:23.041Z,14.85
2022-11-23T13:04:09.123Z,16.38
2022-11-23T13:09:33.238Z,14.45
2022-11-23T13:14:50.911Z,13.90
2022-11-23T13:20:17.908Z,14.30
2022-11-23T13:25:29.061Z,15.98
2022-11-23T13:31:13.809Z,14.57
2022-11-23T13:36:11.212Z,13.65
2022-11-23T13:42:02.139Z,13.95
2022-11-23T13:47:20.922Z,13.35
2022-11-23T13:52:37.163Z,15.57
2022-11-23T13:57:47.038Z,17.27
2022-11-23T14:02:53.383Z,15.77
2022-11-23T14:08:03.320Z,14.32
2022-11-23T14:13:20.735Z,14.15
2022-11-23T14:18:57.906Z,14.88
2022-11-23T14:24:38.598Z,14.27
2022-11-23T14:30:09.247Z,13.63
2022-11-23T14:35:30.081Z,14.63
2022-11-23T14:41:04.302Z,14.95
2022-11-23T14:46:19.632Z,13.57
2022-11-23T14:51:28.162Z,13.15
2022-11-23T14:56:38.525Z,14.07
2022-11-23T15:01:52.549Z,13.82
2022-11-23T15:07:03.936Z,14.70
2022-11-23T15:12:28.275Z,15.10
2022-11-23T15:17:36.680Z,18.08
2022-11-23T15:22:46.092Z,16.15
2022-11-23T15:27:52.734Z,17.42
2022-11-23T15:33:02.096Z,16.80
2022-11-23T15:38:17.763Z,16.58
2022-11-23T15:43:26.970Z,15.15
2022-11-23T15:48:37.641Z,16.15
2022-11-23T15:53:51.079Z,16.13
2022-11-23T15:58:58.286Z,17.35
2022-11-23T16:04:08.239Z,16.90
2022-11-23T16:09:54.629Z,19.45
2022-11-23T16:15:42.096Z,22.65
2022-11-23T16:20:53.488Z,19.02
2022-11-23T16:26:04.022Z,22.63
2022-11-23T16:31:31.971Z,20.48
2022-11-23T16:36:41.022Z,22.73
2022-11-23T16:41:47.980Z,19.75
2022-11-23T16:46:54.501Z,19.90
2022-11-23T16:52:02.847Z,20.58
2022-11-23T16:57:16.288Z,17.60
2022-11-23T17:02:23.586Z,20.45
2022-11-23T17:07:33.223Z,22.23
2022-11-23T17:12:41.457Z,19.15
2022-11-23T17:17:48.595Z,20.37
2022-11-23T17:23:00.883Z,14.53
2022-11-23T17:28:17.318Z,18.80
2022-11-23T17:33:24.776Z,21.48
2022-11-23T17:38:34.228Z,19.67
2022-11-23T17:43:41.191Z,21.30
2022-11-23T17:48:57.377Z,19.90
2022-11-23T17:54:06.875Z,21.63
2022-11-23T17:59:15.195Z,22.67
2022-11-23T18:04:22.480Z,18.02
2022-11-23T18:09:31.803Z,19.27
2022-11-23T18:14:39.566Z,19.77
2022-11-23T18:19:46.987Z,20.00
2022-11-23T18:24:56.771Z,19.13
2022-11-23T18:30:10.201Z,18.45
2022-11-23T18:35:19.033Z,21.23
2022-11-23T18:40:29.213Z,20.55
2022-11-23T18:45:37.134Z,20.10
2022-11-23T18:50:44.884Z,21.58
2022-11-23T18:55:59.018Z,17.77
2022-11-23T19:01:13.337Z,18.90
2022-11-23T19:06:24.083Z,19.75
2022-11-23T19:11:33.265Z,18.98
2022-11-23T19:16:41.046Z,19.30
2022-11-23T19:21:48.205Z,20.35
2022-11-23T19:26:57.168Z,19.63
2022-11-23T19:32:04.779Z,18.75
2022-11-23T19:37:12.524Z,17.42
2022-11-23T19:42:21.736Z,19.48
2022-11-23T19:47:32.419Z,18.52
2022-11-23T19:53:10.726Z,18.38
2022-11-23T19:58:10.314Z,18.75
2022-11-23T20:08:28.219Z,20.35
2022-11-23T20:18:47.935Z,19.13
2022-11-23T20:24:04.365Z,17.48
2022-11-23T20:29:15.983Z,16.77
2022-11-23T20:34:26.404Z,18.75
2022-11-23T20:39:35.002Z,17.60
2022-11-23T20:44:45.235Z,19.42
2022-11-23T20:49:52.823Z,17.98
2022-11-23T20:55:00.284Z,19.73
2022-11-23T21:00:11.944Z,17.27
2022-11-23T21:05:19.770Z,17.83
2022-11-23T21:10:44.058Z,17.45
2022-11-23T21:15:52.270Z,17.52
2022-11-23T21:21:03.458Z,17.73
2022-11-23T21:26:10.718Z,18.75
2022-11-23T21:31:19.274Z,17.90
2022-11-23T21:36:26.955Z,19.08
2022-11-23T21:41:33.884Z,17.75
2022-11-23T21:46:43.096Z,15.70
2022-11-23T21:51:50.621Z,15.90
2022-11-23T21:56:57.357Z,16.90
2022-11-23T22:02:05.625Z,16.58
2022-11-23T22:07:12.662Z,16.90
2022-11-23T22:12:19.074Z,18.98
2022-11-23T22:17:28.043Z,18.55
2022-11-23T22:27:40.486Z,17.13
2022-11-23T22:32:48.701Z,16.70
2022-11-23T22:37:55.878Z,14.25
2022-11-23T22:43:04.115Z,17.23
2022-11-23T22:48:12.225Z,14.57
2022-11-23T22:53:18.542Z,15.80
2022-11-23T22:58:25.011Z,17.40
2022-11-23T23:09:33.760Z,16.50
2022-11-23T23:14:40.125Z,16.75
2022-11-23T23:19:47.962Z,15.60
2022-11-23T23:24:54.334Z,13.48
2022-11-23T23:30:01.412Z,15.13
2022-11-23T23:35:11.760Z,16.15
2022-11-23T23:45:24.458Z,15.85
2022-11-23T23:50:32.401Z,14.52
2022-11-23T23:55:38.721Z,14.73
